createdAt,value
2022-12-25T00:00:29.938Z,3.86
2022-12-25T00:01:29.897Z,3.80
2022-12-25T00:02:30.018Z,3.78
2022-12-25T00:03:30.037Z,3.71
2022-12-25T00:04:29.877Z,3.68
2022-12-25T00:05:29.816Z,3.64
2022-12-25T00:06:29.852Z,3.61
2022-12-25T00:07:29.795Z,3.57
2022-12-25T00:08:29.948Z,3.52
2022-12-25T00:09:29.788Z,3.52
2022-12-25T00:10:29.783Z,3.50
2022-12-25T00:11:29.779Z,3.47
2022-12-25T00:12:29.808Z,3.44
2022-12-25T00:13:29.715Z,3.44
2022-12-25T00:14:29.745Z,3.44
2022-12-25T00:15:29.731Z,3.44
2022-12-25T00:16:29.768Z,3.46
2022-12-25T00:17:29.660Z,3.46
2022-12-25T00:18:29.702Z,3.47
2022-12-25T00:19:29.638Z,3.49
2022-12-25T00:20:29.764Z,3.50
2022-12-25T00:21:29.624Z,3.53
2022-12-25T00:22:29.619Z,3.54
2022-12-25T00:23:29.619Z,3.57
2022-12-25T00:24:29.624Z,3.58
2022-12-25T00:25:29.551Z,3.57
2022-12-25T00:26:29.725Z,3.58
2022-12-25T00:27:29.519Z,3.60
2022-12-25T00:28:29.549Z,3.58
2022-12-25T00:29:29.522Z,3.60
2022-12-25T00:30:29.543Z,3.62
2022-12-25T00:31:29.523Z,3.60
2022-12-25T00:32:29.532Z,3.57
2022-12-25T00:33:29.488Z,3.50
2022-12-25T00:34:29.460Z,3.49
2022-12-25T00:35:29.484Z,3.47
2022-12-25T00:36:29.476Z,3.50
2022-12-25T00:37:29.403Z,3.54
2022-12-25T00:38:29.544Z,3.68
2022-12-25T00:39:29.382Z,3.76
2022-12-25T00:40:29.384Z,3.88
2022-12-25T00:41:29.398Z,4.01
2022-12-25T00:42:29.334Z,4.14
2022-12-25T00:43:29.390Z,4.26
2022-12-25T00:44:29.457Z,4.39
2022-12-25T00:45:29.360Z,4.50
2022-12-25T00:46:29.380Z,4.61
2022-12-25T00:47:29.274Z,4.69
2022-12-25T00:48:29.281Z,4.72
2022-12-25T00:49:29.280Z,4.70
2022-12-25T00:50:29.405Z,4.67
2022-12-25T00:51:29.238Z,4.62
2022-12-25T00:52:29.259Z,4.57
2022-12-25T00:53:29.226Z,4.47
2022-12-25T00:54:29.241Z,4.37
2022-12-25T00:55:29.170Z,4.32
2022-12-25T00:56:29.225Z,4.26
2022-12-25T00:57:29.212Z,4.21
2022-12-25T00:58:29.153Z,4.15
2022-12-25T00:59:29.148Z,4.15
2022-12-25T01:00:29.150Z,4.10
2022-12-25T01:01:29.240Z,4.12
2022-12-25T01:02:29.345Z,4.10
2022-12-25T01:03:29.163Z,4.01
2022-12-25T01:04:29.100Z,3.97
2022-12-25T01:05:29.027Z,3.98
2022-12-25T01:06:29.090Z,3.92
2022-12-25T01:07:29.001Z,3.90
2022-12-25T01:08:29.155Z,3.90
2022-12-25T01:09:29.008Z,3.90
2022-12-25T01:10:29.040Z,3.96
2022-12-25T01:11:28.985Z,3.97
2022-12-25T01:12:29.028Z,3.94
2022-12-25T01:13:28.943Z,3.90
2022-12-25T01:14:29.042Z,3.88
2022-12-25T01:15:28.913Z,3.82
2022-12-25T01:16:28.947Z,3.75
2022-12-25T01:17:28.902Z,3.71
2022-12-25T01:18:28.929Z,3.68
2022-12-25T01:19:28.866Z,3.72
2022-12-25T01:20:28.910Z,3.82
2022-12-25T01:21:28.847Z,3.94
2022-12-25T01:22:28.863Z,4.01
2022-12-25T01:23:28.815Z,4.12
2022-12-25T01:24:28.855Z,4.21
2022-12-25T01:25:28.770Z,4.25
2022-12-25T01:26:28.873Z,4.25
2022-12-25T01:27:28.748Z,4.21
2022-12-25T01:28:28.774Z,4.25
2022-12-25T01:29:28.801Z,4.36
2022-12-25T01:30:28.736Z,4.50
2022-12-25T01:31:28.761Z,4.59
2022-12-25T01:32:28.865Z,4.65
2022-12-25T01:33:28.676Z,4.75
2022-12-25T01:34:28.684Z,4.83
2022-12-25T01:35:28.670Z,4.92
2022-12-25T01:36:28.756Z,5.01
2022-12-25T01:37:28.622Z,5.09
2022-12-25T01:38:28.723Z,5.13
2022-12-25T01:39:28.606Z,5.13
2022-12-25T01:40:28.620Z,5.14
2022-12-25T01:41:28.631Z,5.19
2022-12-25T01:42:28.599Z,5.27
2022-12-25T01:43:28.571Z,5.30
2022-12-25T01:44:28.611Z,5.37
2022-12-25T01:45:28.536Z,5.43
2022-12-25T01:46:28.560Z,5.49
2022-12-25T01:47:28.486Z,5.52
2022-12-25T01:48:28.509Z,5.60
2022-12-25T01:49:28.491Z,5.68
2022-12-25T01:50:28.590Z,5.71
2022-12-25T01:51:28.461Z,5.73
2022-12-25T01:52:28.473Z,5.70
2022-12-25T01:53:28.412Z,5.68
2022-12-25T01:54:28.441Z,5.67
2022-12-25T01:55:28.386Z,5.67
2022-12-25T01:56:28.535Z,5.64
2022-12-25T01:57:28.384Z,5.60
2022-12-25T01:58:28.368Z,5.59
2022-12-25T01:59:28.358Z,5.56
2022-12-25T02:00:28.366Z,5.52
2022-12-25T02:01:28.420Z,5.45
2022-12-25T02:02:28.469Z,5.40
2022-12-25T02:03:28.363Z,5.34
2022-12-25T02:04:28.310Z,5.30
2022-12-25T02:05:28.275Z,5.28
2022-12-25T02:06:28.290Z,5.25
2022-12-25T02:07:28.236Z,5.25
2022-12-25T02:08:28.279Z,5.27
2022-12-25T02:09:28.220Z,5.30
2022-12-25T02:10:28.212Z,5.30
2022-12-25T02:11:28.198Z,5.30
2022-12-25T02:12:28.213Z,5.31
2022-12-25T02:13:28.146Z,5.31
2022-12-25T02:14:28.235Z,5.30
2022-12-25T02:15:28.118Z,5.25
2022-12-25T02:16:28.195Z,5.27
2022-12-25T02:17:28.162Z,5.27
2022-12-25T02:18:28.126Z,5.28
2022-12-25T02:19:28.089Z,5.25
2022-12-25T02:20:28.162Z,5.23
2022-12-25T02:21:28.042Z,5.27
2022-12-25T02:22:28.055Z,5.23
2022-12-25T02:23:28.054Z,5.22
2022-12-25T02:24:28.101Z,5.22
2022-12-25T02:25:27.992Z,5.20
2022-12-25T02:26:29.748Z,5.16
2022-12-25T02:27:27.982Z,5.14
2022-12-25T02:28:27.998Z,5.13
2022-12-25T02:29:27.963Z,5.16
2022-12-25T02:30:27.963Z,5.19
2022-12-25T02:31:27.968Z,5.17
2022-12-25T02:32:28.060Z,5.22
2022-12-25T02:33:27.887Z,5.22
2022-12-25T02:34:27.925Z,5.20
2022-12-25T02:35:27.856Z,5.16
2022-12-25T02:36:27.918Z,5.12
2022-12-25T02:37:27.855Z,5.09
2022-12-25T02:38:27.995Z,5.04
2022-12-25T02:39:27.808Z,5.04
2022-12-25T02:40:27.816Z,5.04
2022-12-25T02:41:27.795Z,5.02
2022-12-25T02:42:27.794Z,4.98
2022-12-25T02:43:27.788Z,4.95
2022-12-25T02:44:27.825Z,4.94
2022-12-25T02:45:27.732Z,4.94
2022-12-25T02:46:27.832Z,4.92
2022-12-25T02:47:27.743Z,4.95
2022-12-25T02:48:27.721Z,4.96
2022-12-25T02:49:27.701Z,4.96
2022-12-25T02:50:27.753Z,4.95
2022-12-25T02:51:27.687Z,4.94
2022-12-25T02:52:27.684Z,4.92
2022-12-25T02:53:27.619Z,4.95
2022-12-25T02:54:27.659Z,4.96
2022-12-25T02:55:27.599Z,4.99
2022-12-25T02:56:27.642Z,5.01
2022-12-25T02:57:27.608Z,5.04
2022-12-25T02:58:27.591Z,5.04
2022-12-25T02:59:27.564Z,5.05
2022-12-25T03:00:27.577Z,5.09
2022-12-25T03:01:27.646Z,5.12
2022-12-25T03:02:27.675Z,5.14
2022-12-25T03:03:27.525Z,5.17
2022-12-25T03:04:27.492Z,5.22
2022-12-25T03:05:27.522Z,5.27
2022-12-25T03:06:27.474Z,5.25
2022-12-25T03:07:27.451Z,5.28
2022-12-25T03:08:27.596Z,5.30
2022-12-25T03:09:27.444Z,5.30
2022-12-25T03:10:27.444Z,5.30
2022-12-25T03:11:27.405Z,5.27
2022-12-25T03:12:27.414Z,5.25
2022-12-25T03:13:27.370Z,5.19
2022-12-25T03:14:27.455Z,5.16
2022-12-25T03:15:27.327Z,5.10
2022-12-25T03:16:27.371Z,5.02
2022-12-25T03:17:27.328Z,5.01
2022-12-25T03:18:27.357Z,5.01
2022-12-25T03:19:27.296Z,5.04
2022-12-25T03:20:27.458Z,5.07
2022-12-25T03:21:27.254Z,5.07
2022-12-25T03:22:27.296Z,5.09
2022-12-25T03:23:27.320Z,5.07
2022-12-25T03:24:27.231Z,5.05
2022-12-25T03:25:27.217Z,5.01
2022-12-25T03:26:27.279Z,4.96
2022-12-25T03:27:27.160Z,4.96
2022-12-25T03:28:27.191Z,4.96
2022-12-25T03:29:31.661Z,4.94
2022-12-25T03:30:27.295Z,4.91
2022-12-25T03:31:27.182Z,4.91
2022-12-25T03:32:27.282Z,4.91
2022-12-25T03:33:44.437Z,4.89
2022-12-25T03:34:28.149Z,4.84
2022-12-25T03:35:27.065Z,4.86
2022-12-25T03:36:27.065Z,4.86
2022-12-25T03:37:27.047Z,4.80
2022-12-25T03:38:27.176Z,4.83
2022-12-25T03:39:27.035Z,4.79
2022-12-25T03:40:27.039Z,4.76
2022-12-25T03:41:26.976Z,4.75
2022-12-25T03:42:27.012Z,4.76
2022-12-25T03:43:26.972Z,4.79
2022-12-25T03:44:27.042Z,4.84
2022-12-25T03:45:26.919Z,4.88
2022-12-25T03:46:26.981Z,4.92
2022-12-25T03:47:26.887Z,5.01
2022-12-25T03:48:26.896Z,5.05
2022-12-25T03:49:26.928Z,5.10
2022-12-25T03:50:26.936Z,5.12
2022-12-25T03:51:26.874Z,5.17
2022-12-25T03:52:26.889Z,5.25
2022-12-25T03:53:26.834Z,5.31
2022-12-25T03:54:26.855Z,5.32
2022-12-25T03:55:26.808Z,5.35
2022-12-25T03:56:27.166Z,5.38
2022-12-25T03:57:26.795Z,5.38
2022-12-25T03:58:26.791Z,5.37
2022-12-25T03:59:26.765Z,5.37
2022-12-25T04:00:26.785Z,5.32
2022-12-25T04:01:26.815Z,5.22
2022-12-25T04:02:26.868Z,5.19
2022-12-25T04:03:26.793Z,5.20
2022-12-25T04:04:26.714Z,5.23
2022-12-25T04:05:26.695Z,5.27
2022-12-25T04:06:26.693Z,5.30
2022-12-25T04:07:26.657Z,5.30
2022-12-25T04:08:26.776Z,5.34
2022-12-25T04:09:26.600Z,5.38
2022-12-25T04:10:26.682Z,5.45
2022-12-25T04:11:26.592Z,5.55
2022-12-25T04:12:26.591Z,5.67
2022-12-25T04:13:26.616Z,5.77
2022-12-25T04:14:26.629Z,5.85
2022-12-25T04:15:26.584Z,5.89
2022-12-25T04:16:26.603Z,5.93
2022-12-25T04:17:26.510Z,5.98
2022-12-25T04:18:26.514Z,6.01
2022-12-25T04:19:26.497Z,6.06
2022-12-25T04:20:26.668Z,6.07
2022-12-25T04:21:26.467Z,6.11
2022-12-25T04:22:26.475Z,6.14
2022-12-25T04:23:26.440Z,6.14
2022-12-25T04:24:26.437Z,6.16
2022-12-25T04:25:26.423Z,6.18
2022-12-25T04:26:26.530Z,6.21
2022-12-25T04:27:26.383Z,6.21
2022-12-25T04:28:26.439Z,6.22
2022-12-25T04:29:26.344Z,6.22
2022-12-25T04:30:26.415Z,6.25
2022-12-25T04:31:26.439Z,6.26
2022-12-25T04:32:26.392Z,6.26
2022-12-25T04:33:26.266Z,6.26
2022-12-25T04:34:26.340Z,6.29
2022-12-25T04:35:26.248Z,6.29
2022-12-25T04:36:26.257Z,6.29
2022-12-25T04:37:26.250Z,6.32
2022-12-25T04:38:26.307Z,6.32
2022-12-25T04:39:26.221Z,6.32
2022-12-25T04:40:26.266Z,6.32
2022-12-25T04:41:26.176Z,6.30
2022-12-25T04:42:26.236Z,6.33
2022-12-25T04:43:26.150Z,6.35
2022-12-25T04:44:26.198Z,6.35
2022-12-25T04:45:26.224Z,6.38
2022-12-25T04:46:26.232Z,6.38
2022-12-25T04:47:26.123Z,6.40
2022-12-25T04:48:26.108Z,6.38
2022-12-25T04:49:26.099Z,6.40
2022-12-25T04:50:26.128Z,6.35
2022-12-25T04:51:26.061Z,6.36
2022-12-25T04:52:26.078Z,6.38
2022-12-25T04:53:26.032Z,6.43
2022-12-25T04:54:26.058Z,6.43
2022-12-25T04:55:25.984Z,6.44
2022-12-25T04:56:26.041Z,6.44
2022-12-25T04:57:25.979Z,6.46
2022-12-25T04:58:25.964Z,6.50
2022-12-25T04:59:25.955Z,6.51
2022-12-25T05:00:26.011Z,6.50
2022-12-25T05:01:25.952Z,6.51
2022-12-25T05:02:26.201Z,6.53
2022-12-25T05:03:25.993Z,6.54
2022-12-25T05:04:25.909Z,6.58
2022-12-25T05:05:25.911Z,6.58
2022-12-25T05:06:25.889Z,6.59
2022-12-25T05:07:25.854Z,6.61
2022-12-25T05:08:25.992Z,6.59
2022-12-25T05:09:25.854Z,6.62
2022-12-25T05:10:25.860Z,6.65
2022-12-25T05:11:25.832Z,6.66
2022-12-25T05:12:25.786Z,6.68
2022-12-25T05:13:25.782Z,6.72
2022-12-25T05:14:25.814Z,6.76
2022-12-25T05:15:25.759Z,6.73
2022-12-25T05:16:25.758Z,6.72
2022-12-25T05:17:25.772Z,6.71
2022-12-25T05:18:25.708Z,6.72
2022-12-25T05:19:25.705Z,6.69
2022-12-25T05:20:25.783Z,6.71
2022-12-25T05:21:25.696Z,6.71
2022-12-25T05:22:25.632Z,6.68
2022-12-25T05:23:25.695Z,6.69
2022-12-25T05:24:25.627Z,6.69
2022-12-25T05:25:25.699Z,6.68
2022-12-25T05:26:25.671Z,6.65
2022-12-25T05:27:25.588Z,6.68
2022-12-25T05:28:25.645Z,6.66
2022-12-25T05:29:25.646Z,6.68
2022-12-25T05:30:25.539Z,6.68
2022-12-25T05:31:25.585Z,6.66
2022-12-25T05:32:25.654Z,6.69
2022-12-25T05:33:25.535Z,6.71
2022-12-25T05:34:25.471Z,6.72
2022-12-25T05:35:25.531Z,6.72
2022-12-25T05:36:25.498Z,6.73
2022-12-25T05:37:25.462Z,6.76
2022-12-25T05:38:25.509Z,6.79
2022-12-25T05:39:25.451Z,6.77
2022-12-25T05:40:25.393Z,6.76
2022-12-25T05:41:29.179Z,6.77
2022-12-25T05:42:26.372Z,6.73
2022-12-25T05:43:25.428Z,6.76
2022-12-25T05:44:25.439Z,6.76
2022-12-25T05:45:25.370Z,6.76
2022-12-25T05:46:25.341Z,6.73
2022-12-25T05:47:25.330Z,6.73
2022-12-25T05:48:25.299Z,6.76
2022-12-25T05:49:25.344Z,6.76
2022-12-25T05:50:25.345Z,6.77
2022-12-25T05:51:25.288Z,6.79
2022-12-25T05:52:25.265Z,6.77
2022-12-25T05:53:25.320Z,6.77
2022-12-25T05:54:25.216Z,6.81
2022-12-25T05:55:25.259Z,6.81
2022-12-25T05:56:25.267Z,6.84
2022-12-25T05:57:25.268Z,6.87
2022-12-25T05:58:25.199Z,6.86
2022-12-25T05:59:25.178Z,6.89
2022-12-25T06:00:25.191Z,6.90
2022-12-25T06:01:25.211Z,6.91
2022-12-25T06:02:25.360Z,6.91
2022-12-25T06:03:25.204Z,6.91
2022-12-25T06:04:25.132Z,6.94
2022-12-25T06:05:25.115Z,6.91
2022-12-25T06:06:25.130Z,6.94
2022-12-25T06:07:25.074Z,6.94
2022-12-25T06:08:25.093Z,6.94
2022-12-25T06:09:25.083Z,6.95
2022-12-25T06:10:25.012Z,6.99
2022-12-25T06:11:25.042Z,6.98
2022-12-25T06:12:25.028Z,6.99
2022-12-25T06:13:24.983Z,7.01
2022-12-25T06:14:25.103Z,7.05
2022-12-25T06:15:24.977Z,7.02
2022-12-25T06:16:24.962Z,6.99
2022-12-25T06:17:24.971Z,7.02
2022-12-25T06:18:24.907Z,7.01
2022-12-25T06:19:24.931Z,7.02
2022-12-25T06:20:24.938Z,7.04
2022-12-25T06:21:24.896Z,7.05
2022-12-25T06:22:24.865Z,7.02
2022-12-25T06:23:24.926Z,7.05
2022-12-25T06:24:24.842Z,7.05
2022-12-25T06:25:24.862Z,7.05
2022-12-25T06:26:24.944Z,7.04
2022-12-25T06:27:24.817Z,7.05
2022-12-25T06:28:24.772Z,7.02
2022-12-25T06:29:24.811Z,7.02
2022-12-25T06:30:24.755Z,7.04
2022-12-25T06:31:24.841Z,7.04
2022-12-25T06:32:24.786Z,7.04
2022-12-25T06:33:24.751Z,7.01
2022-12-25T06:34:24.712Z,7.02
2022-12-25T06:35:24.696Z,7.02
2022-12-25T06:36:24.661Z,7.04
2022-12-25T06:37:24.705Z,7.02
2022-12-25T06:38:24.767Z,6.99
2022-12-25T06:39:24.678Z,6.98
2022-12-25T06:40:24.622Z,6.98
2022-12-25T06:41:24.669Z,6.97
2022-12-25T06:42:24.588Z,6.95
2022-12-25T06:43:24.639Z,6.95
2022-12-25T06:44:24.701Z,6.94
2022-12-25T06:45:24.596Z,6.94
2022-12-25T06:46:24.640Z,6.94
2022-12-25T06:47:24.540Z,6.94
2022-12-25T06:48:24.502Z,6.94
2022-12-25T06:49:24.538Z,6.94
2022-12-25T06:50:24.591Z,6.94
2022-12-25T06:51:24.522Z,6.94
2022-12-25T06:52:24.478Z,6.91
2022-12-25T06:53:24.460Z,6.94
2022-12-25T06:54:24.428Z,6.97
2022-12-25T06:55:24.464Z,6.94
2022-12-25T06:56:24.458Z,6.91
2022-12-25T06:57:24.450Z,6.91
2022-12-25T06:58:24.399Z,6.95
2022-12-25T06:59:24.397Z,6.94
2022-12-25T07:00:24.377Z,6.95
2022-12-25T07:01:24.508Z,6.98
2022-12-25T07:02:24.560Z,7.02
2022-12-25T07:03:24.509Z,7.05
2022-12-25T07:04:24.350Z,7.05
2022-12-25T07:05:24.307Z,7.07
2022-12-25T07:06:24.281Z,7.08
2022-12-25T07:07:24.316Z,7.09
2022-12-25T07:08:24.285Z,7.09
2022-12-25T07:09:24.281Z,7.08
2022-12-25T07:10:24.205Z,7.08
2022-12-25T07:11:24.255Z,7.09
2022-12-25T07:12:24.275Z,7.08
2022-12-25T07:13:26.163Z,7.09
2022-12-25T07:14:24.766Z,7.12
2022-12-25T07:15:24.184Z,7.16
2022-12-25T07:16:24.182Z,7.19
2022-12-25T07:17:24.162Z,7.17
2022-12-25T07:18:24.107Z,7.20
2022-12-25T07:19:24.144Z,7.20
2022-12-25T07:20:24.230Z,7.20
2022-12-25T07:21:24.088Z,7.23
2022-12-25T07:22:24.090Z,7.23
2022-12-25T07:23:24.068Z,7.23
2022-12-25T07:24:24.028Z,7.23
2022-12-25T07:25:24.067Z,7.23
2022-12-25T07:26:24.143Z,7.24
2022-12-25T07:27:24.013Z,7.26
2022-12-25T07:28:23.959Z,7.26
2022-12-25T07:29:24.014Z,7.26
2022-12-25T07:30:23.941Z,7.27
2022-12-25T07:31:24.065Z,7.26
2022-12-25T07:32:24.017Z,7.26
2022-12-25T07:33:23.931Z,7.27
2022-12-25T07:34:23.945Z,7.27
2022-12-25T07:35:23.919Z,7.29
2022-12-25T07:36:23.880Z,7.27
2022-12-25T07:37:23.908Z,7.27
2022-12-25T07:38:23.878Z,7.29
2022-12-25T07:39:24.047Z,7.27
2022-12-25T07:40:23.837Z,7.26
2022-12-25T07:41:23.833Z,7.24
2022-12-25T07:42:25.494Z,7.24
2022-12-25T07:43:23.830Z,7.23
2022-12-25T07:44:23.821Z,7.24
2022-12-25T07:45:23.775Z,7.23
2022-12-25T07:46:23.807Z,7.22
2022-12-25T07:47:23.765Z,7.20
2022-12-25T07:48:23.713Z,7.19
2022-12-25T07:49:23.782Z,7.15
2022-12-25T07:50:23.719Z,7.09
2022-12-25T07:51:23.738Z,7.04
2022-12-25T07:52:23.722Z,7.01
2022-12-25T07:53:23.667Z,6.99
2022-12-25T07:54:23.657Z,6.97
2022-12-25T07:55:23.645Z,6.99
2022-12-25T07:56:23.714Z,6.97
2022-12-25T07:57:23.650Z,6.98
2022-12-25T07:58:23.790Z,7.02
2022-12-25T07:59:23.592Z,7.05
2022-12-25T08:00:23.549Z,7.12
2022-12-25T08:01:23.780Z,7.16
2022-12-25T08:02:23.921Z,7.17
2022-12-25T08:03:23.760Z,7.20
2022-12-25T08:04:23.551Z,7.20
2022-12-25T08:05:23.517Z,7.24
2022-12-25T08:06:23.495Z,7.27
2022-12-25T08:07:23.487Z,7.31
2022-12-25T08:08:23.484Z,7.31
2022-12-25T08:09:23.512Z,7.34
2022-12-25T08:10:23.420Z,7.38
2022-12-25T08:11:23.474Z,7.41
2022-12-25T08:12:23.437Z,7.42
2022-12-25T08:13:23.419Z,7.45
2022-12-25T08:14:23.428Z,7.45
2022-12-25T08:15:23.396Z,7.45
2022-12-25T08:16:23.373Z,7.47
2022-12-25T08:17:23.396Z,7.50
2022-12-25T08:18:29.529Z,7.49
2022-12-25T08:19:24.388Z,7.50
2022-12-25T08:20:23.319Z,7.55
2022-12-25T08:21:23.305Z,7.55
2022-12-25T08:22:23.302Z,7.56
2022-12-25T08:23:23.278Z,7.58
2022-12-25T08:24:23.243Z,7.59
2022-12-25T08:25:23.316Z,7.62
2022-12-25T08:26:23.228Z,7.62
2022-12-25T08:27:23.263Z,7.66
2022-12-25T08:28:23.213Z,7.66
2022-12-25T08:29:23.192Z,7.69
2022-12-25T08:30:23.158Z,7.71
2022-12-25T08:31:23.346Z,7.69
2022-12-25T08:32:23.164Z,7.71
2022-12-25T08:33:23.144Z,7.72
2022-12-25T08:34:23.124Z,7.72
2022-12-25T08:35:23.121Z,7.74
2022-12-25T08:36:23.105Z,7.74
2022-12-25T08:37:23.145Z,7.74
2022-12-25T08:38:23.061Z,7.75
2022-12-25T08:39:23.096Z,7.77
2022-12-25T08:40:23.044Z,7.77
2022-12-25T08:41:23.058Z,7.77
2022-12-25T08:42:23.032Z,7.78
2022-12-25T08:43:23.038Z,7.78
2022-12-25T08:44:22.977Z,7.79
2022-12-25T08:45:23.022Z,7.77
2022-12-25T08:46:23.087Z,7.77
2022-12-25T08:47:22.971Z,7.79
2022-12-25T08:48:22.930Z,7.81
2022-12-25T08:49:22.997Z,7.81
2022-12-25T08:50:22.892Z,7.82
2022-12-25T08:51:22.947Z,7.84
2022-12-25T08:52:22.923Z,7.85
2022-12-25T08:53:22.886Z,7.87
2022-12-25T08:54:22.871Z,7.87
2022-12-25T08:55:22.983Z,7.85
2022-12-25T08:56:22.824Z,7.85
2022-12-25T08:57:22.864Z,7.84
2022-12-25T08:58:22.783Z,7.85
2022-12-25T08:59:22.831Z,7.85
2022-12-25T09:00:22.780Z,7.85
2022-12-25T09:01:22.927Z,7.89
2022-12-25T09:02:22.906Z,7.90
2022-12-25T09:03:22.828Z,7.93
2022-12-25T09:04:22.740Z,7.94
2022-12-25T09:05:22.740Z,7.96
2022-12-25T09:06:22.720Z,7.97
2022-12-25T09:07:22.770Z,7.99
2022-12-25T09:08:22.656Z,7.99
2022-12-25T09:09:22.695Z,7.99
2022-12-25T09:10:22.707Z,7.97
2022-12-25T09:11:22.671Z,7.97
2022-12-25T09:12:22.653Z,7.96
2022-12-25T09:13:22.647Z,7.96
2022-12-25T09:14:22.603Z,7.92
2022-12-25T09:15:22.605Z,7.90
2022-12-25T09:16:22.645Z,7.89
2022-12-25T09:17:22.601Z,7.87
2022-12-25T09:18:22.599Z,7.84
2022-12-25T09:19:22.564Z,7.82
2022-12-25T09:20:22.532Z,7.81
2022-12-25T09:21:22.511Z,7.79
2022-12-25T09:22:22.502Z,7.77
2022-12-25T09:23:22.486Z,7.75
2022-12-25T09:24:22.495Z,7.74
2022-12-25T09:25:22.460Z,7.72
2022-12-25T09:26:22.472Z,7.71
2022-12-25T09:27:22.408Z,7.69
2022-12-25T09:28:22.425Z,7.69
2022-12-25T09:29:22.406Z,7.66
2022-12-25T09:30:22.390Z,7.63
2022-12-25T09:31:22.765Z,7.63
2022-12-25T09:32:22.404Z,7.63
2022-12-25T09:33:22.322Z,7.67
2022-12-25T09:34:22.346Z,7.69
2022-12-25T09:35:22.328Z,7.69
2022-12-25T09:36:22.343Z,7.66
2022-12-25T09:37:22.311Z,7.66
2022-12-25T09:38:22.310Z,7.63
2022-12-25T09:39:22.247Z,7.66
2022-12-25T09:40:22.256Z,7.63
2022-12-25T09:41:22.241Z,7.59
2022-12-25T09:42:22.242Z,7.55
2022-12-25T09:43:22.255Z,7.52
2022-12-25T09:44:22.232Z,7.53
2022-12-25T09:45:22.182Z,7.53
2022-12-25T09:46:22.257Z,7.58
2022-12-25T09:47:22.139Z,7.59
2022-12-25T09:48:22.157Z,7.62
2022-12-25T09:49:22.182Z,7.67
2022-12-25T09:50:22.153Z,7.72
2022-12-25T09:51:22.124Z,7.77
2022-12-25T09:52:22.113Z,7.79
2022-12-25T09:53:22.084Z,7.82
2022-12-25T09:54:22.080Z,7.85
2022-12-25T09:55:22.122Z,7.87
2022-12-25T09:56:22.074Z,7.89
2022-12-25T09:57:22.004Z,7.90
2022-12-25T09:58:22.036Z,7.93
2022-12-25T09:59:21.980Z,7.96
2022-12-25T10:00:21.990Z,7.96
2022-12-25T10:01:22.175Z,7.97
2022-12-25T10:02:22.269Z,7.97
2022-12-25T10:03:21.963Z,7.97
2022-12-25T10:04:21.974Z,7.97
2022-12-25T10:05:21.903Z,7.99
2022-12-25T10:06:21.965Z,7.97
2022-12-25T10:07:21.930Z,8.00
2022-12-25T10:08:21.915Z,7.99
2022-12-25T10:09:21.852Z,8.00
2022-12-25T10:10:21.876Z,8.02
2022-12-25T10:11:21.822Z,8.03
2022-12-25T10:12:21.844Z,8.07
2022-12-25T10:13:21.849Z,8.10
2022-12-25T10:14:21.806Z,8.10
2022-12-25T10:15:21.794Z,8.11
2022-12-25T10:16:21.892Z,8.12
2022-12-25T10:17:21.744Z,8.14
2022-12-25T10:18:21.770Z,8.14
2022-12-25T10:19:21.744Z,8.15
2022-12-25T10:20:21.723Z,8.15
2022-12-25T10:21:21.710Z,8.15
2022-12-25T10:22:21.705Z,8.14
2022-12-25T10:23:21.682Z,8.15
2022-12-25T10:24:21.702Z,8.15
2022-12-25T10:25:21.744Z,8.18
2022-12-25T10:26:21.667Z,8.17
2022-12-25T10:27:21.605Z,8.18
2022-12-25T10:28:21.633Z,8.18
2022-12-25T10:29:21.603Z,8.18
2022-12-25T10:30:21.590Z,8.21
2022-12-25T10:31:21.699Z,8.21
2022-12-25T10:32:21.590Z,8.22
2022-12-25T10:33:21.517Z,8.25
2022-12-25T10:34:21.571Z,8.26
2022-12-25T10:35:21.493Z,8.28
2022-12-25T10:36:21.512Z,8.29
2022-12-25T10:37:21.549Z,8.30
2022-12-25T10:38:21.511Z,8.30
2022-12-25T10:39:21.455Z,8.30
2022-12-25T10:40:21.457Z,8.30
2022-12-25T10:41:21.464Z,8.32
2022-12-25T10:42:21.431Z,8.30
2022-12-25T10:43:21.546Z,8.30
2022-12-25T10:44:21.447Z,8.30
2022-12-25T10:45:21.502Z,8.32
2022-12-25T10:46:21.474Z,8.29
2022-12-25T10:47:21.359Z,8.29
2022-12-25T10:48:21.413Z,8.29
2022-12-25T10:49:21.462Z,8.29
2022-12-25T10:50:21.338Z,8.29
2022-12-25T10:51:21.380Z,8.26
2022-12-25T10:52:21.322Z,8.28
2022-12-25T10:53:22.133Z,8.25
2022-12-25T10:54:21.292Z,8.25
2022-12-25T10:55:28.132Z,8.22
2022-12-25T10:56:22.292Z,8.21
2022-12-25T10:57:21.998Z,8.20
2022-12-25T10:58:21.997Z,8.18
2022-12-25T10:59:21.178Z,8.17
2022-12-25T11:00:21.194Z,8.18
2022-12-25T11:01:21.402Z,8.18
2022-12-25T11:02:21.292Z,8.18
2022-12-25T11:03:21.376Z,8.18
2022-12-25T11:04:21.162Z,8.18
2022-12-25T11:05:21.089Z,8.18
2022-12-25T11:06:21.130Z,8.20
2022-12-25T11:07:21.095Z,8.21
2022-12-25T11:08:21.092Z,8.21
2022-12-25T11:09:21.067Z,8.25
2022-12-25T11:10:21.084Z,8.25
2022-12-25T11:11:21.007Z,8.26
2022-12-25T11:12:21.063Z,8.26
2022-12-25T11:13:21.126Z,8.29
2022-12-25T11:14:21.008Z,8.29
2022-12-25T11:15:20.992Z,8.32
2022-12-25T11:16:21.150Z,8.32
2022-12-25T11:17:20.928Z,8.32
2022-12-25T11:18:20.999Z,8.35
2022-12-25T11:19:20.932Z,8.35
2022-12-25T11:20:20.935Z,8.35
2022-12-25T11:21:20.905Z,8.36
2022-12-25T11:22:20.880Z,8.37
2022-12-25T11:23:20.873Z,8.36
2022-12-25T11:24:20.897Z,8.37
2022-12-25T11:25:20.965Z,8.37
2022-12-25T11:26:20.870Z,8.39
2022-12-25T11:27:20.805Z,8.39
2022-12-25T11:28:20.806Z,8.37
2022-12-25T11:29:20.797Z,8.39
2022-12-25T11:30:20.783Z,8.40
2022-12-25T11:31:20.951Z,8.39
2022-12-25T11:32:20.784Z,8.37
2022-12-25T11:33:20.713Z,8.39
2022-12-25T11:34:20.760Z,8.39
2022-12-25T11:35:20.686Z,8.37
2022-12-25T11:36:20.708Z,8.39
2022-12-25T11:37:20.816Z,8.37
2022-12-25T11:38:20.676Z,8.39
2022-12-25T11:39:20.664Z,8.37
2022-12-25T11:40:20.675Z,8.37
2022-12-25T11:41:20.840Z,8.37
2022-12-25T11:42:20.626Z,8.37
2022-12-25T11:43:20.720Z,8.35
2022-12-25T11:44:20.619Z,8.33
2022-12-25T11:45:20.558Z,8.35
2022-12-25T11:46:20.646Z,8.32
2022-12-25T11:47:20.542Z,8.32
2022-12-25T11:48:20.552Z,8.30
2022-12-25T11:49:20.647Z,8.29
2022-12-25T11:50:20.523Z,8.29
2022-12-25T11:51:20.496Z,8.29
2022-12-25T11:52:20.521Z,8.29
2022-12-25T11:53:20.446Z,8.29
2022-12-25T11:54:20.486Z,8.29
2022-12-25T11:55:20.477Z,8.29
2022-12-25T11:56:20.430Z,8.29
2022-12-25T11:57:20.426Z,8.29
2022-12-25T11:58:20.453Z,8.28
2022-12-25T11:59:20.374Z,8.28
2022-12-25T12:00:20.394Z,8.28
2022-12-25T12:01:20.539Z,8.25
2022-12-25T12:02:20.438Z,8.25
2022-12-25T12:03:20.545Z,8.22
2022-12-25T12:04:24.396Z,8.25
2022-12-25T12:05:21.324Z,8.25
2022-12-25T12:06:20.340Z,8.26
2022-12-25T12:07:20.302Z,8.25
2022-12-25T12:08:20.278Z,8.25
2022-12-25T12:09:20.261Z,8.22
2022-12-25T12:10:20.253Z,8.22
2022-12-25T12:11:20.255Z,8.22
2022-12-25T12:12:20.244Z,8.21
2022-12-25T12:13:20.299Z,8.20
2022-12-25T12:14:20.222Z,8.20
2022-12-25T12:15:20.184Z,8.21
2022-12-25T12:16:20.207Z,8.21
2022-12-25T12:17:20.132Z,8.22
2022-12-25T12:18:20.191Z,8.21
2022-12-25T12:19:20.217Z,8.21
2022-12-25T12:20:20.116Z,8.21
2022-12-25T12:21:20.104Z,8.22
2022-12-25T12:22:20.097Z,8.21
2022-12-25T12:23:20.077Z,8.21
2022-12-25T12:24:20.095Z,8.22
2022-12-25T12:25:20.156Z,8.22
2022-12-25T12:26:20.066Z,8.25
2022-12-25T12:27:19.996Z,8.22
2022-12-25T12:28:20.010Z,8.25
2022-12-25T12:29:19.989Z,8.28
2022-12-25T12:30:19.979Z,8.28
2022-12-25T12:31:20.025Z,8.28
2022-12-25T12:32:19.987Z,8.29
2022-12-25T12:33:19.927Z,8.28
2022-12-25T12:34:19.962Z,8.30
2022-12-25T12:35:19.890Z,8.32
2022-12-25T12:36:29.095Z,8.30
2022-12-25T12:37:24.775Z,8.35
2022-12-25T12:38:19.897Z,8.35
2022-12-25T12:39:19.860Z,8.36
2022-12-25T12:40:19.886Z,8.37
2022-12-25T12:41:19.814Z,8.37
2022-12-25T12:42:19.847Z,8.37
2022-12-25T12:43:19.916Z,8.37
2022-12-25T12:44:19.795Z,8.35
2022-12-25T12:45:19.780Z,8.36
2022-12-25T12:46:23.044Z,8.35
2022-12-25T12:47:20.722Z,8.36
2022-12-25T12:48:19.739Z,8.35
2022-12-25T12:49:19.770Z,8.33
2022-12-25T12:50:19.732Z,8.33
2022-12-25T12:51:19.708Z,8.33
2022-12-25T12:52:19.717Z,8.32
2022-12-25T12:53:19.655Z,8.33
2022-12-25T12:54:19.702Z,8.35
2022-12-25T12:55:19.661Z,8.35
2022-12-25T12:56:19.637Z,8.35
2022-12-25T12:57:19.632Z,8.35
2022-12-25T12:58:19.615Z,8.33
2022-12-25T12:59:19.607Z,8.36
2022-12-25T13:00:19.660Z,8.36
2022-12-25T13:01:19.737Z,8.37
2022-12-25T13:02:19.673Z,8.37
2022-12-25T13:03:19.651Z,8.39
2022-12-25T13:04:19.582Z,8.42
2022-12-25T13:05:19.507Z,8.40
2022-12-25T13:06:19.533Z,8.40
2022-12-25T13:07:19.509Z,8.39
2022-12-25T13:08:19.537Z,8.39
2022-12-25T13:09:19.464Z,8.37
2022-12-25T13:10:19.443Z,8.39
2022-12-25T13:11:19.441Z,8.40
2022-12-25T13:12:19.447Z,8.42
2022-12-25T13:13:19.499Z,8.44
2022-12-25T13:14:19.415Z,8.47
2022-12-25T13:15:19.351Z,8.45
2022-12-25T13:16:19.434Z,8.45
2022-12-25T13:17:19.339Z,8.48
2022-12-25T13:18:19.401Z,8.47